Time;durP1;ratioP1;P1;durP2;ratioP2;P2;SDS_P1;SDS_P2;PMS_P1;PMS_P2;Temp;Humidity;BMP_temperature;BMP_pressure;BME280_temperature;BME280_humidity;BME280_pressure;Samples;Min_cycle;Max_cycle;Signal;HPM_P1;HPM_P2
2023/05/08 00:02:12;;;;;;;13.93;12.48;;;;;;;13.51;100.00;102012.31;4975512;28;20054;-75
2023/05/08 00:04:37;;;;;;;15.15;12.85;;;;;;;13.43;100.00;102004.13;4958052;28;20062;-77
2023/05/08 00:07:03;;;;;;;14.30;12.85;;;;;;;13.44;100.00;102011.81;4974797;28;20018;-77
2023/05/08 00:09:28;;;;;;;15.82;14.23;;;;;;;13.47;100.00;102035.00;4975413;28;20031;-75
2023/05/08 00:11:53;;;;;;;15.93;14.32;;;;;;;13.32;100.00;102009.91;4975244;28;20035;-76
2023/05/08 00:14:19;;;;;;;15.52;13.93;;;;;;;13.46;100.00;102028.13;4975191;28;20111;-76
2023/05/08 00:16:44;;;;;;;15.80;14.10;;;;;;;13.48;100.00;102026.31;4974834;28;20033;-76
2023/05/08 00:19:09;;;;;;;15.70;14.10;;;;;;;13.43;100.00;102017.94;4975393;28;20105;-75
2023/05/08 00:21:35;;;;;;;17.73;14.80;;;;;;;13.48;100.00;102023.72;4975214;28;20386;-76
2023/05/08 00:24:00;;;;;;;15.55;13.77;;;;;;;13.32;100.00;101999.53;4975168;28;20092;-78
2023/05/08 00:26:25;;;;;;;17.83;14.90;;;;;;;13.39;100.00;102013.84;4974964;28;20394;-76
2023/05/08 00:28:51;;;;;;;15.63;13.95;;;;;;;13.40;100.00;102015.50;4975096;28;20492;-76
2023/05/08 00:31:16;;;;;;;17.38;15.57;;;;;;;13.32;100.00;102014.25;4974832;28;20518;-75
2023/05/08 00:33:41;;;;;;;16.20;14.50;;;;;;;13.31;100.00;102003.03;4974954;28;20379;-73
2023/05/08 00:36:07;;;;;;;17.55;15.52;;;;;;;13.31;100.00;102012.59;4975015;28;20383;-73
2023/05/08 00:38:33;;;;;;;18.05;16.25;;;;;;;13.39;100.00;102020.78;4974941;28;20490;-75
2023/05/08 00:41:00;;;;;;;16.85;15.15;;;;;;;13.32;100.00;102012.50;4974737;28;20467;-74
2023/05/08 00:43:27;;;;;;;16.73;14.98;;;;;;;13.34;100.00;102018.44;4974928;28;20039;-76
2023/05/08 00:45:53;;;;;;;16.38;14.68;;;;;;;13.17;100.00;101996.00;4974574;28;20030;-75
2023/05/08 00:48:20;;;;;;;16.63;14.82;;;;;;;13.15;100.00;101991.81;4974310;28;20030;-73
2023/05/08 00:50:47;;;;;;;15.55;13.95;;;;;;;13.21;100.00;101996.69;4974592;28;20026;-79
2023/05/08 00:53:13;;;;;;;16.23;14.45;;;;;;;13.28;100.00;102015.38;4974601;28;20022;-76
2023/05/08 00:55:38;;;;;;;18.52;14.32;;;;;;;13.15;100.00;101995.22;4974598;28;20038;-78
2023/05/08 00:58:05;;;;;;;20.33;14.63;;;;;;;13.12;100.00;101990.22;4974493;28;20026;-76
2023/05/08 01:00:31;;;;;;;16.88;15.05;;;;;;;13.12;100.00;101998.00;4974258;28;20027;-76
2023/05/08 01:02:59;;;;;;;16.83;14.95;;;;;;;13.23;100.00;102015.59;4956992;28;20031;-73
2023/05/08 01:05:26;;;;;;;16.60;14.85;;;;;;;13.10;100.00;101991.25;4974541;28;20026;-73
2023/05/08 01:07:51;;;;;;;19.08;15.90;;;;;;;13.26;100.00;102017.19;4974281;28;20039;-76
2023/05/08 01:10:16;;;;;;;17.48;15.57;;;;;;;13.15;100.00;101997.00;4974345;28;20356;-76
2023/05/08 01:13:02;;;;;;;17.92;15.48;;;;;;;13.25;100.00;102013.75;4974409;28;20030;-76
2023/05/08 01:15:42;;;;;;;16.45;14.80;;;;;;;13.16;100.00;101989.13;4974162;28;20137;-75
2023/05/08 01:18:18;;;;;;;17.67;15.77;;;;;;;13.17;100.00;101988.22;4974378;28;20030;-74
2023/05/08 01:20:53;;;;;;;17.10;15.00;;;;;;;13.17;100.00;101989.97;4974396;28;20030;-75
2023/05/08 01:23:27;;;;;;;16.23;14.40;;;;;;;13.26;100.00;102005.03;4974130;28;20019;-74
2023/05/08 01:26:25;;;;;;;16.17;14.48;;;;;;;13.19;100.00;101998.56;4973982;28;20058;-75
2023/05/08 01:29:22;;;;;;;16.75;15.05;;;;;;;13.28;100.00;102002.41;4956701;28;20034;-74
2023/05/08 01:32:14;;;;;;;15.82;14.18;;;;;;;13.26;100.00;102009.41;4973851;28;20026;-79
2023/05/08 01:34:50;;;;;;;18.98;14.77;;;;;;;13.13;100.00;101994.50;4973930;28;20062;-76
2023/05/08 01:37:20;;;;;;;16.98;15.18;;;;;;;13.14;100.00;101998.75;4973992;28;20027;-74
2023/05/08 01:39:54;;;;;;;16.55;14.82;;;;;;;13.23;100.00;102010.41;4973800;28;20493;-74
2023/05/08 01:42:32;;;;;;;17.55;15.75;;;;;;;13.23;100.00;102010.41;4973944;28;20086;-74
2023/05/08 01:45:02;;;;;;;16.67;14.88;;;;;;;13.08;100.00;101993.91;4973844;28;20030;-75
2023/05/08 01:47:31;;;;;;;15.88;14.27;;;;;;;13.22;100.00;102005.31;4973742;28;20027;-77
2023/05/08 01:50:06;;;;;;;18.48;16.60;;;;;;;13.11;100.00;101998.94;4973365;28;20491;-76
2023/05/08 01:52:42;;;;;;;19.95;16.13;;;;;;;13.15;100.00;102003.00;4973842;28;20041;-74
2023/05/08 01:55:10;;;;;;;16.80;14.38;;;;;;;13.07;100.00;101988.78;4973820;28;20395;-74
2023/05/08 01:57:41;;;;;;;16.30;14.68;;;;;;;13.17;100.00;102013.31;4973455;28;20035;-76
2023/05/08 02:00:08;;;;;;;16.02;14.35;;;;;;;13.17;100.00;102018.50;4973785;28;20027;-75
2023/05/08 02:02:34;;;;;;;16.63;14.93;;;;;;;13.03;100.00;101993.31;4956481;28;20030;-72
2023/05/08 02:05:03;;;;;;;17.65;15.50;;;;;;;13.07;100.00;102004.34;4973549;28;20027;-74
2023/05/08 02:07:29;;;;;;;18.67;15.93;;;;;;;13.10;100.00;102006.81;4973718;28;20027;-75
2023/05/08 02:09:56;;;;;;;17.88;15.98;;;;;;;13.14;100.00;102014.31;4973653;28;20027;-74
2023/05/08 02:12:23;;;;;;;18.05;15.95;;;;;;;13.09;100.00;102007.72;4973511;28;20031;-78
2023/05/08 02:14:52;;;;;;;17.48;15.50;;;;;;;13.00;100.00;101988.31;4973843;28;20031;-74
2023/05/08 02:17:18;;;;;;;18.55;16.38;;;;;;;13.02;100.00;101988.22;4973286;28;20061;-76
2023/05/08 02:19:44;;;;;;;19.08;16.85;;;;;;;13.15;100.00;102015.16;4973656;28;20453;-80
2023/05/08 02:22:10;;;;;;;17.45;15.65;;;;;;;13.15;100.00;102021.16;4973539;28;20459;-77
2023/05/08 02:24:37;;;;;;;17.17;15.38;;;;;;;13.09;100.00;102020.69;4973546;28;20027;-76
2023/05/08 02:27:03;;;;;;;18.20;16.35;;;;;;;13.14;100.00;102016.06;4973435;28;20022;-76
2023/05/08 02:29:29;;;;;;;20.08;16.95;;;;;;;13.07;100.00;102012.13;4974581;28;20073;-75
2023/05/08 02:31:56;;;;;;;18.60;16.60;;;;;;;13.14;100.00;102021.25;4959767;28;20035;-77
2023/05/08 02:34:23;;;;;;;19.13;17.10;;;;;;;13.08;100.00;102013.84;4977200;28;20383;-76
2023/05/08 02:36:51;;;;;;;20.63;17.27;;;;;;;13.09;100.00;102016.34;4977072;28;20384;-76
2023/05/08 02:39:17;;;;;;;22.80;18.83;;;;;;;13.12;100.00;102018.75;4977141;28;20081;-75
2023/05/08 02:41:43;;;;;;;23.52;19.40;;;;;;;13.12;100.00;102026.53;4976961;28;20054;-75
2023/05/08 02:44:08;;;;;;;21.17;19.05;;;;;;;13.03;100.00;102019.25;4977048;28;20090;-77
2023/05/08 02:46:58;;;;;;;21.10;18.90;;;;;;;13.13;100.00;102043.75;4959158;28;20089;-76
2023/05/08 02:49:33;;;;;;;22.02;19.73;;;;;;;13.01;100.00;102018.50;4879618;29;20088;-81
2023/05/08 02:52:09;;;;;;;25.27;21.77;;;;;;;13.08;100.00;102029.41;4879598;29;20402;-77
2023/05/08 02:54:44;;;;;;;26.30;23.05;;;;;;;13.11;100.00;102031.81;4879602;29;20131;-76
2023/05/08 02:57:32;;;;;;;24.20;20.90;;;;;;;12.99;100.00;102015.16;4879666;29;20520;-81
2023/05/08 03:00:14;;;;;;;26.35;21.73;;;;;;;13.03;100.00;102023.59;4879600;29;20036;-80
2023/05/08 03:02:42;;;;;;;25.33;21.52;;;;;;;12.96;100.00;102004.94;4879335;29;20052;-79
2023/05/08 03:05:19;;;;;;;27.20;22.60;;;;;;;13.09;100.00;102024.13;4879373;29;20092;-81
2023/05/08 03:07:49;;;;;;;25.58;22.83;;;;;;;13.01;100.00;102015.91;4863528;29;20104;-79
2023/05/08 03:10:20;;;;;;;25.15;21.38;;;;;;;13.01;100.00;102018.50;4879499;29;20033;-76
2023/05/08 03:12:48;;;;;;;24.10;20.52;;;;;;;13.03;100.00;102018.41;4879303;29;20079;-75
2023/05/08 03:15:33;;;;;;;27.02;23.48;;;;;;;13.07;100.00;102027.69;4879301;29;20052;-76
2023/05/08 03:18:06;;;;;;;25.65;22.77;;;;;;;12.90;100.00;102015.66;4879169;29;20133;-81
2023/05/08 03:20:39;;;;;;;26.73;22.23;;;;;;;13.00;100.00;102029.81;4879309;29;20116;-77
2023/05/08 03:23:07;;;;;;;27.80;22.42;;;;;;;12.96;100.00;102028.28;4878852;29;20112;-73
2023/05/08 03:25:34;;;;;;;24.08;21.02;;;;;;;12.93;100.00;102021.50;4889591;28;20071;-74
2023/05/08 03:28:00;;;;;;;25.10;20.88;;;;;;;12.78;100.00;102004.19;4958644;28;20030;-74
2023/05/08 03:30:26;;;;;;;22.50;20.00;;;;;;;12.84;100.00;102023.75;4976197;28;20027;-74
2023/05/08 03:32:56;;;;;;;25.15;20.73;;;;;;;12.80;100.00;102020.50;4976095;28;20027;-74
2023/05/08 03:35:21;;;;;;;29.25;24.92;;;;;;;12.74;100.00;102015.63;4976121;28;20041;-74
2023/05/08 03:37:47;;;;;;;29.70;25.50;;;;;;;12.44;100.00;101968.84;4976070;28;20039;-74
2023/05/08 03:40:12;;;;;;;28.67;24.60;;;;;;;12.59;100.00;101996.56;4975810;28;20489;-73
2023/05/08 03:42:39;;;;;;;29.08;22.70;;;;;;;12.60;100.00;102010.34;4975012;28;20019;-74
2023/05/08 03:45:05;;;;;;;26.00;21.73;;;;;;;12.44;100.00;101992.16;4975942;28;20031;-74
2023/05/08 03:47:33;;;;;;;23.75;21.15;;;;;;;12.47;100.00;102011.88;4975799;28;20022;-74
2023/05/08 03:49:59;;;;;;;26.02;22.98;;;;;;;12.29;100.00;101986.03;4975593;28;20493;-74
2023/05/08 03:52:25;;;;;;;25.40;22.23;;;;;;;12.18;100.00;101974.53;4975812;28;20382;-73
2023/05/08 03:54:50;;;;;;;22.52;19.90;;;;;;;12.32;100.00;102005.75;4957811;28;20039;-74
2023/05/08 03:57:15;;;;;;;24.23;21.60;;;;;;;12.28;100.00;102010.25;4975507;28;20501;-75
2023/05/08 04:00:00;;;;;;;23.83;21.17;;;;;;;12.17;100.00;101994.41;4975811;28;20038;-78
2023/05/08 04:02:49;;;;;;;24.85;21.23;;;;;;;12.28;100.00;102009.41;4975542;28;20056;-75
2023/05/08 04:05:30;;;;;;;28.27;20.98;;;;;;;12.11;100.00;101986.16;4957542;28;20035;-74
2023/05/08 04:08:08;;;;;;;25.40;21.92;;;;;;;12.25;100.00;102000.06;4975385;28;20218;-79
2023/05/08 04:10:43;;;;;;;27.35;23.33;;;;;;;12.24;100.00;101992.38;4975394;28;20106;-83
2023/05/08 04:13:14;;;;;;;25.17;21.73;;;;;;;12.18;100.00;101987.50;4975394;28;20027;-81
2023/05/08 04:15:51;;;;;;;27.15;22.70;;;;;;;12.34;100.00;102007.34;4975376;28;20061;-75
2023/05/08 04:18:27;;;;;;;28.33;24.23;;;;;;;12.27;100.00;101997.38;4975053;28;20019;-76
2023/05/08 04:20:54;;;;;;;28.33;23.10;;;;;;;12.40;100.00;102013.16;4975457;28;20053;-74
2023/05/08 04:23:21;;;;;;;29.65;24.58;;;;;;;12.39;100.00;102001.94;4975120;28;20034;-82
2023/05/08 04:25:50;;;;;;;34.17;24.67;;;;;;;12.53;100.00;102019.34;4975144;28;20031;-80
2023/05/08 04:28:16;;;;;;;27.50;23.50;;;;;;;12.50;100.00;102004.81;4975279;28;20054;-80
2023/05/08 04:30:41;;;;;;;31.83;23.95;;;;;;;12.66;100.00;102028.16;4975236;28;20077;-75
2023/05/08 04:33:08;;;;;;;26.38;23.08;;;;;;;12.59;100.00;102006.94;4975002;28;20109;-81
2023/05/08 04:35:33;;;;;;;27.48;22.40;;;;;;;12.76;100.00;102023.31;4974769;28;20027;-75
2023/05/08 04:37:59;;;;;;;26.13;22.38;;;;;;;12.79;100.00;102034.38;4975028;28;20031;-75
2023/05/08 04:40:24;;;;;;;31.67;24.05;;;;;;;12.72;100.00;102016.63;4974962;28;20027;-74
2023/05/08 04:42:50;;;;;;;31.13;23.20;;;;;;;12.86;100.00;102040.06;4974744;28;20038;-74
2023/05/08 04:45:15;;;;;;;28.95;24.27;;;;;;;12.91;100.00;102033.72;4974804;28;20037;-75
2023/05/08 04:47:41;;;;;;;32.25;25.17;;;;;;;12.98;100.00;102039.44;4972441;28;20050;-75
2023/05/08 04:50:06;;;;;;;31.50;27.48;;;;;;;12.92;100.00;102021.59;4974296;28;20042;-74
2023/05/08 04:52:32;;;;;;;31.02;27.67;;;;;;;13.10;100.00;102040.50;4974216;28;20031;-76
2023/05/08 04:54:57;;;;;;;32.17;27.45;;;;;;;13.05;100.00;102026.94;4974651;28;20039;-74
2023/05/08 04:57:23;;;;;;;37.75;31.23;;;;;;;13.10;100.00;102024.97;4974619;28;20049;-75
2023/05/08 04:59:48;;;;;;;35.88;30.52;;;;;;;13.19;100.00;102024.50;4974524;28;20059;-75
2023/05/08 05:02:14;;;;;;;36.08;30.58;;;;;;;13.38;100.00;102040.72;4974759;28;20034;-75
2023/05/08 05:04:39;;;;;;;35.67;30.08;;;;;;;13.33;100.00;102027.16;4974280;28;20035;-75
2023/05/08 05:07:05;;;;;;;40.40;32.40;;;;;;;13.39;100.00;102016.44;4974529;28;20066;-75
2023/05/08 05:09:30;;;;;;;41.05;33.92;;;;;;;13.70;100.00;102056.22;4974328;28;20474;-76
2023/05/08 05:11:55;;;;;;;44.03;35.70;;;;;;;13.49;100.00;102014.16;4974294;28;20018;-74
2023/05/08 05:14:21;;;;;;;46.88;35.30;;;;;;;13.78;100.00;102054.03;4974362;28;20026;-76
2023/05/08 05:16:46;;;;;;;59.53;36.00;;;;;;;13.86;100.00;102066.56;4974333;28;20411;-75
2023/05/08 05:19:12;;;;;;;55.85;35.28;;;;;;;13.84;100.00;102060.63;4956636;28;20157;-80
2023/05/08 05:21:38;;;;;;;42.75;34.20;;;;;;;13.94;100.00;102065.22;4956829;28;20117;-76
2023/05/08 05:24:04;;;;;;;40.08;32.67;;;;;;;14.00;100.00;102071.81;4974080;28;20427;-79
2023/05/08 05:26:30;;;;;;;45.30;33.83;;;;;;;13.88;100.00;102064.75;4973962;28;20113;-79
2023/05/08 05:28:55;;;;;;;44.05;35.45;;;;;;;13.88;100.00;102062.97;4974105;28;20102;-76
2023/05/08 05:31:20;;;;;;;53.45;32.92;;;;;;;13.98;100.00;102082.31;4974025;28;20137;-76
2023/05/08 05:33:46;;;;;;;47.33;32.35;;;;;;;14.02;100.00;102082.97;4973941;28;20026;-76
2023/05/08 05:36:11;;;;;;;48.80;32.70;;;;;;;14.06;100.00;102079.28;4973779;28;20041;-77
2023/05/08 05:38:36;;;;;;;58.28;33.55;;;;;;;14.00;100.00;102058.84;4973987;28;20058;-76
2023/05/08 05:41:02;;;;;;;46.03;33.75;;;;;;;14.11;100.00;102061.66;4974017;28;20101;-79
2023/05/08 05:43:27;;;;;;;53.40;33.47;;;;;;;14.16;100.00;102063.97;4973936;28;20134;-78
2023/05/08 05:45:54;;;;;;;47.80;32.35;;;;;;;14.28;100.00;102081.47;4973943;28;20030;-76
2023/05/08 05:48:20;;;;;;;60.47;31.83;;;;;;;14.33;100.00;102080.25;4973540;28;20019;-76
2023/05/08 05:50:45;;;;;;;50.35;33.03;;;;;;;14.09;100.00;102045.31;4973723;28;20489;-76
2023/05/08 05:53:11;;;;;;;42.58;32.25;;;;;;;14.23;100.00;102071.31;4973820;28;20031;-76
2023/05/08 05:55:37;;;;;;;44.97;32.38;;;;;;;14.32;100.00;102090.72;4973743;28;20031;-76
2023/05/08 05:58:02;;;;;;;48.17;32.67;;;;;;;14.36;100.00;102097.44;4973710;28;20360;-81
2023/05/08 06:00:29;;;;;;;52.33;32.83;;;;;;;14.39;100.00;102092.06;4973758;28;20471;-76
2023/05/08 06:02:54;;;;;;;44.40;31.65;;;;;;;14.19;100.00;102076.81;4973606;28;20390;-77
2023/05/08 06:05:20;;;;;;;36.75;31.17;;;;;;;14.39;100.00;102101.63;4975890;28;20033;-76
2023/05/08 06:07:45;;;;;;;35.78;30.85;;;;;;;14.20;100.00;102068.06;4960522;28;20022;-76
2023/05/08 06:10:11;;;;;;;34.78;30.77;;;;;;;14.39;100.00;102092.06;4977728;28;20546;-76
2023/05/08 06:12:36;;;;;;;36.42;32.38;;;;;;;14.30;100.00;102077.00;4977705;28;20035;-78
2023/05/08 06:15:02;;;;;;;36.05;32.20;;;;;;;14.37;100.00;102083.53;4977655;28;20023;-76
2023/05/08 06:17:27;;;;;;;38.55;34.08;;;;;;;14.33;100.00;102062.06;4977353;28;20033;-76
2023/05/08 06:19:54;;;;;;;37.85;33.15;;;;;;;14.59;100.00;102083.94;4958593;28;20095;-74
2023/05/08 06:22:23;;;;;;;37.03;33.03;;;;;;;14.45;100.00;102059.69;4939391;29;20024;-76
2023/05/08 06:24:52;;;;;;;38.20;32.75;;;;;;;14.51;100.00;102054.97;4938801;29;20026;-77
2023/05/08 06:27:17;;;;;;;39.70;34.03;;;;;;;14.72;100.00;102072.78;4938917;29;20032;-76
2023/05/08 06:29:43;;;;;;;37.85;32.40;;;;;;;14.85;100.00;102091.94;4938539;29;20031;-76
2023/05/08 06:32:08;;;;;;;38.15;33.88;;;;;;;14.91;100.00;102086.34;4937324;29;20067;-78
2023/05/08 06:34:33;;;;;;;42.30;35.35;;;;;;;14.96;100.00;102096.50;4938368;29;20035;-81
2023/05/08 06:36:59;;;;;;;41.72;36.38;;;;;;;14.89;100.00;102096.03;4938565;29;20036;-77
2023/05/08 06:39:24;;;;;;;40.47;36.05;;;;;;;14.81;100.00;102086.06;4938431;29;20468;-77
2023/05/08 06:41:49;;;;;;;40.92;35.53;;;;;;;14.83;100.00;102080.78;4938499;29;20480;-77
2023/05/08 06:44:17;;;;;;;40.65;35.08;;;;;;;14.97;100.00;102104.19;4938519;29;20031;-73
2023/05/08 06:46:43;;;;;;;39.72;34.92;;;;;;;15.03;100.00;102098.59;4938126;29;20035;-77
2023/05/08 06:49:08;;;;;;;42.97;36.42;;;;;;;15.09;100.00;102102.59;4938161;29;20055;-77
2023/05/08 06:51:37;;;;;;;41.50;36.92;;;;;;;15.13;100.00;102106.69;4938099;29;20039;-78
2023/05/08 06:54:06;;;;;;;40.42;35.95;;;;;;;15.12;100.00;102092.84;4921216;29;20071;-78
2023/05/08 06:56:32;;;;;;;40.80;36.47;;;;;;;15.25;100.00;102105.09;4938282;29;20035;-79
2023/05/08 06:58:57;;;;;;;43.58;37.72;;;;;;;15.20;100.00;102114.00;4938245;29;20024;-74
2023/05/08 07:01:22;;;;;;;43.05;38.35;;;;;;;15.19;100.00;102109.75;4938211;29;20095;-75
2023/05/08 07:03:48;;;;;;;42.45;37.92;;;;;;;15.17;100.00;102113.38;4938348;29;20028;-76
2023/05/08 07:06:13;;;;;;;43.22;38.63;;;;;;;15.16;100.00;102112.53;4937955;29;20024;-75
2023/05/08 07:08:38;;;;;;;43.67;38.25;;;;;;;15.13;100.00;102120.53;4938066;29;20059;-76
2023/05/08 07:11:04;;;;;;;43.33;38.78;;;;;;;15.04;100.00;102104.63;4938154;29;20487;-76
2023/05/08 07:13:29;;;;;;;43.05;38.38;;;;;;;15.14;100.00;102126.56;4938019;29;20028;-77
2023/05/08 07:15:55;;;;;;;41.80;35.90;;;;;;;15.11;100.00;102127.59;4937783;29;20032;-77
2023/05/08 07:18:20;;;;;;;42.25;37.58;;;;;;;15.05;100.00;102120.19;4937857;29;20495;-75
2023/05/08 07:20:46;;;;;;;42.20;35.95;;;;;;;15.01;100.00;102123.88;4937912;29;20051;-78
2023/05/08 07:23:11;;;;;;;45.83;37.30;;;;;;;14.96;100.00;102122.50;4937667;29;20436;-75
2023/05/08 07:25:36;;;;;;;46.00;38.78;;;;;;;14.76;100.00;102100.31;4937807;29;20027;-76
2023/05/08 07:28:01;;;;;;;46.13;37.42;;;;;;;14.79;100.00;102100.94;4937652;29;20028;-74
2023/05/08 07:30:27;;;;;;;47.47;38.13;;;;;;;14.86;100.00;102117.88;4941263;28;20020;-74
2023/05/08 07:32:52;;;;;;;44.67;37.55;;;;;;;14.89;100.00;102122.88;4957225;29;20037;-76
2023/05/08 07:35:18;;;;;;;46.20;37.58;;;;;;;14.83;100.00;102110.22;4956947;29;20027;-75
2023/05/08 07:37:44;;;;;;;46.85;38.47;;;;;;;14.88;100.00;102107.34;4971026;28;20030;-77
2023/05/08 07:40:09;;;;;;;50.38;38.85;;;;;;;14.92;100.00;102117.47;4976114;28;20081;-73
2023/05/08 07:42:42;;;;;;;45.47;36.47;;;;;;;15.00;100.00;102113.56;4975503;28;20030;-80
2023/05/08 07:45:09;;;;;;;45.75;38.10;;;;;;;15.01;100.00;102102.22;4975750;28;20031;-77
2023/05/08 07:47:34;;;;;;;47.53;39.42;;;;;;;15.12;100.00;102097.19;4975675;28;20364;-79
2023/05/08 07:50:00;;;;;;;47.60;38.33;;;;;;;15.26;100.00;102111.97;4975889;28;20050;-76
2023/05/08 07:52:25;;;;;;;45.30;37.38;;;;;;;15.38;100.00;102106.00;4975248;28;20035;-77
2023/05/08 07:54:51;;;;;;;43.80;37.78;;;;;;;15.50;100.00;102113.88;4975320;28;20117;-76
2023/05/08 07:57:16;;;;;;;46.47;38.33;;;;;;;15.36;100.00;102068.84;4975769;28;20031;-75
2023/05/08 07:59:41;;;;;;;45.60;37.17;;;;;;;15.75;100.00;102117.56;4975518;28;20463;-75
2023/05/08 08:02:07;;;;;;;46.17;36.92;;;;;;;15.84;100.00;102098.72;4975481;28;20034;-73
2023/05/08 08:04:32;;;;;;;43.58;37.60;;;;;;;16.09;100.00;102118.78;4975195;28;20054;-75
2023/05/08 08:06:57;;;;;;;43.25;37.15;;;;;;;16.24;100.00;102116.97;4975418;28;20109;-74
2023/05/08 08:09:23;;;;;;;43.15;36.30;;;;;;;16.39;100.00;102118.53;4975019;28;20031;-76
2023/05/08 08:11:48;;;;;;;42.67;36.50;;;;;;;16.50;100.00;102116.03;4975580;28;20103;-75
2023/05/08 08:14:14;;;;;;;41.80;36.08;;;;;;;16.72;100.00;102117.25;4975325;28;20034;-74
2023/05/08 08:16:39;;;;;;;42.65;37.08;;;;;;;17.01;100.00;102110.84;4975211;28;20113;-75
2023/05/08 08:19:05;;;;;;;37.90;32.95;;;;;;;17.36;100.00;102113.56;4975281;28;20031;-76
2023/05/08 08:21:31;;;;;;;40.65;34.72;;;;;;;17.74;100.00;102123.91;4975086;28;20537;-75
2023/05/08 08:23:57;;;;;;;38.10;33.65;;;;;;;18.01;100.00;102121.06;4975035;28;20035;-74
2023/05/08 08:26:24;;;;;;;36.22;32.30;;;;;;;18.20;99.46;102123.16;4974868;28;20034;-74
2023/05/08 08:28:50;;;;;;;38.25;31.20;;;;;;;18.39;99.80;102103.47;4974710;28;20022;-75
2023/05/08 08:31:15;;;;;;;36.30;32.08;;;;;;;18.67;97.60;102091.72;4975162;28;20019;-75
2023/05/08 08:33:41;;;;;;;35.03;31.23;;;;;;;19.01;95.43;102111.72;4974873;28;20394;-75
2023/05/08 08:36:12;;;;;;;34.13;30.42;;;;;;;19.35;94.02;102111.66;4974803;28;20065;-76
2023/05/08 08:38:37;;;;;;;;;;;;;;;19.72;100.00;102113.03;4937349;29;20059;-77
2023/05/08 08:41:03;;;;;;;33.85;30.30;;;;;;;19.44;90.01;102108.31;4937609;29;19915;-77
2023/05/08 08:43:28;;;;;;;32.97;29.48;;;;;;;19.24;91.33;102088.97;4936480;29;20031;-78
2023/05/08 08:45:54;;;;;;;36.22;32.35;;;;;;;19.34;90.16;102110.84;4936459;29;20034;-78
2023/05/08 08:48:22;;;;;;;34.28;30.75;;;;;;;19.37;94.05;102102.75;4936551;29;20028;-76
2023/05/08 08:50:52;;;;;;;34.13;30.50;;;;;;;19.44;93.84;102093.44;4936106;29;20040;-79
2023/05/08 08:53:31;;;;;;;32.30;28.90;;;;;;;19.61;89.94;102107.00;4936201;29;20464;-76
2023/05/08 08:55:59;;;;;;;32.38;28.92;;;;;;;19.56;86.39;102093.44;4935860;29;20036;-78
2023/05/08 08:58:45;;;;;;;31.55;28.15;;;;;;;19.61;89.78;102062.47;4936117;29;20220;-80
2023/05/08 09:01:15;;;;;;;32.10;28.70;;;;;;;19.72;86.33;102076.34;4936069;29;20416;-80
2023/05/08 09:03:40;;;;;;;31.45;28.15;;;;;;;20.10;87.48;102102.97;4936026;29;20110;-81
2023/05/08 09:06:06;;;;;;;29.15;26.08;;;;;;;20.16;83.81;102111.19;4935797;29;20067;-85
2023/05/08 09:08:32;;;;;;;30.20;27.10;;;;;;;19.79;82.19;102075.84;4935889;29;20019;-78
2023/05/08 09:11:01;;;;;;;29.45;26.38;;;;;;;20.03;86.10;102111.34;4935915;29;20031;-77
2023/05/08 09:13:29;;;;;;;30.23;26.27;;;;;;;20.01;82.12;102096.72;4935890;29;20028;-83
2023/05/08 09:15:57;;;;;;;29.20;26.30;;;;;;;20.12;83.77;102090.56;4935921;29;20032;-80
2023/05/08 09:18:22;;;;;;;30.52;26.92;;;;;;;20.39;85.75;102111.03;4935566;29;20083;-78
2023/05/08 09:20:49;;;;;;;30.23;27.02;;;;;;;20.35;83.00;102084.22;4935532;29;20433;-79
2023/05/08 09:23:16;;;;;;;28.73;25.73;;;;;;;20.41;83.87;102119.59;4935661;29;20119;-78
2023/05/08 09:25:46;;;;;;;31.15;27.75;;;;;;;20.27;84.25;102118.97;4935693;29;20040;-78
2023/05/08 09:28:25;;;;;;;30.83;27.63;;;;;;;20.08;86.55;102112.78;4935822;29;20099;-82
2023/05/08 09:30:57;;;;;;;30.60;27.33;;;;;;;19.65;85.07;102090.06;4935692;29;20031;-79
2023/05/08 09:33:25;;;;;;;32.00;28.58;;;;;;;19.33;86.96;102090.00;4935194;29;20388;-80
2023/05/08 09:35:51;;;;;;;32.95;27.80;;;;;;;19.30;88.58;102113.84;4935764;29;20430;-81
2023/05/08 09:38:37;;;;;;;33.38;29.85;;;;;;;18.97;90.05;102065.78;4935345;29;20024;-84
2023/05/08 09:41:07;;;;;;;32.55;29.10;;;;;;;19.13;89.96;102121.22;4935565;29;20494;-76
2023/05/08 09:43:32;;;;;;;33.88;30.48;;;;;;;19.16;89.38;102120.16;4933910;29;20042;-75
2023/05/08 09:45:57;;;;;;;34.00;30.33;;;;;;;19.19;91.68;102117.31;4935375;29;20036;-75
2023/05/08 09:48:38;;;;;;;34.13;30.45;;;;;;;19.17;91.04;102109.59;4927825;29;20126;-73
2023/05/08 09:51:06;;;;;;;37.03;32.45;;;;;;;19.15;91.24;102121.09;4954991;29;20055;-76
2023/05/08 09:53:32;;;;;;;34.15;30.55;;;;;;;19.19;90.70;102119.94;4954430;29;20074;-75
2023/05/08 09:55:57;;;;;;;33.78;30.23;;;;;;;19.32;90.33;102101.44;4954371;29;20117;-76
2023/05/08 09:58:23;;;;;;;34.20;30.50;;;;;;;19.57;90.32;102119.53;4954310;29;20046;-76
2023/05/08 10:00:49;;;;;;;36.35;32.47;;;;;;;19.77;86.75;102121.38;4936718;29;20035;-76
2023/05/08 10:03:14;;;;;;;33.67;30.02;;;;;;;19.95;86.67;102126.03;4954462;29;20081;-75
2023/05/08 10:05:39;;;;;;;34.72;31.05;;;;;;;19.66;86.12;102061.09;4954445;29;20050;-76
2023/05/08 10:08:22;;;;;;;35.35;31.40;;;;;;;20.11;87.38;102115.97;4936765;29;20369;-76
2023/05/08 10:10:47;;;;;;;33.70;30.10;;;;;;;20.18;85.75;102117.13;4954327;29;20034;-81
2023/05/08 10:13:13;;;;;;;35.08;31.27;;;;;;;20.26;84.53;102116.50;4954240;29;20027;-76
2023/05/08 10:15:41;;;;;;;34.03;30.42;;;;;;;20.27;84.69;102118.16;4954435;29;20102;-76
2023/05/08 10:18:07;;;;;;;34.83;31.20;;;;;;;20.29;85.00;102119.69;4954189;29;20035;-75
2023/05/08 10:20:34;;;;;;;35.55;31.70;;;;;;;20.03;84.36;102107.91;4954256;29;20033;-76
2023/05/08 10:23:02;;;;;;;34.40;30.73;;;;;;;19.86;86.96;102106.69;4953991;29;20026;-75
2023/05/08 10:25:32;;;;;;;36.72;32.83;;;;;;;19.74;87.67;102132.09;4954222;29;20468;-73
2023/05/08 10:28:31;;;;;;;35.35;31.65;;;;;;;19.53;89.87;102120.69;4954095;29;20027;-86
2023/05/08 10:31:00;;;;;;;38.67;34.60;;;;;;;19.15;89.66;102121.94;4954257;29;20403;-76
2023/05/08 10:33:30;;;;;;;43.92;37.00;;;;;;;18.91;92.14;102123.88;4954158;29;20364;-75
2023/05/08 10:35:55;;;;;;;40.77;36.40;;;;;;;18.82;91.68;102125.41;4954236;29;20023;-75
2023/05/08 10:38:22;;;;;;;42.13;36.55;;;;;;;18.70;92.36;102128.97;4952462;29;20521;-76
2023/05/08 10:40:49;;;;;;;39.85;35.00;;;;;;;18.70;94.58;102125.53;4954143;29;20472;-79
2023/05/08 10:43:15;;;;;;;40.15;35.78;;;;;;;18.75;93.25;102107.69;4954103;29;20384;-75
2023/05/08 10:45:41;;;;;;;39.80;35.67;;;;;;;19.03;92.89;102119.47;4952862;28;20034;-72
2023/05/08 10:48:21;;;;;;;42.13;35.28;;;;;;;19.13;92.08;102131.72;4954695;29;20058;-74
2023/05/08 10:51:08;;;;;;;39.80;34.72;;;;;;;19.25;92.10;102102.88;4955279;28;20047;-83
2023/05/08 10:53:47;;;;;;;44.70;35.47;;;;;;;19.51;89.96;102121.78;4957463;29;20418;-76
2023/05/08 10:56:13;;;;;;;40.88;34.72;;;;;;;19.55;89.80;102110.06;4957345;29;20431;-77
2023/05/08 10:58:39;;;;;;;37.90;32.55;;;;;;;19.76;88.50;102122.34;4957211;29;20027;-74
2023/05/08 11:01:07;;;;;;;39.63;35.33;;;;;;;19.99;87.65;102119.59;4955765;29;20043;-75
2023/05/08 11:03:54;;;;;;;40.97;36.17;;;;;;;20.34;87.13;102112.25;4957329;29;20372;-81
2023/05/08 11:06:42;;;;;;;39.80;35.08;;;;;;;20.57;85.89;102104.28;4957379;29;20051;-76
2023/05/08 11:09:08;;;;;;;39.42;33.30;;;;;;;20.74;83.33;102093.13;4957098;29;20521;-83
2023/05/08 11:11:38;;;;;;;40.15;35.08;;;;;;;20.85;82.58;102090.44;4957117;29;20050;-88